sensor_id;sensor_type;location;lat;lon;timestamp;P1;durP1;ratioP1;P2;durP2;ratioP2
20629;SDS011;17386;43.846;25.950;2023-04-22T00:00:36;19.98;;;6.53;;
20629;SDS011;17386;43.846;25.950;2023-04-22T00:03:02;14.13;;;6.18;;
20629;SDS011;17386;43.846;25.950;2023-04-22T00:05:28;16.10;;;5.97;;
20629;SDS011;17386;43.846;25.950;2023-04-22T00:07:54;13.23;;;6.13;;
20629;SDS011;17386;43.846;25.950;2023-04-22T00:10:19;15.95;;;6.10;;
20629;SDS011;17386;43.846;25.950;2023-04-22T00:12:44;12.95;;;5.75;;
20629;SDS011;17386;43.846;25.950;2023-04-22T00:15:10;15.35;;;6.03;;
20629;SDS011;17386;43.846;25.950;2023-04-22T00:17:36;20.20;;;6.72;;
20629;SDS011;17386;43.846;25.950;2023-04-22T00:20:01;15.15;;;6.32;;
20629;SDS011;17386;43.846;25.950;2023-04-22T00:22:27;17.92;;;5.82;;
20629;SDS011;17386;43.846;25.950;2023-04-22T00:24:53;14.90;;;5.60;;
20629;SDS011;17386;43.846;25.950;2023-04-22T00:27:18;13.27;;;6.57;;
20629;SDS011;17386;43.846;25.950;2023-04-22T00:29:44;12.27;;;5.63;;
20629;SDS011;17386;43.846;25.950;2023-04-22T00:32:09;10.65;;;5.45;;
20629;SDS011;17386;43.846;25.950;2023-04-22T00:34:34;14.95;;;5.85;;
20629;SDS011;17386;43.846;25.950;2023-04-22T00:37:00;13.05;;;5.97;;
20629;SDS011;17386;43.846;25.950;2023-04-22T00:39:25;15.23;;;6.07;;
20629;SDS011;17386;43.846;25.950;2023-04-22T00:41:51;11.30;;;5.63;;
20629;SDS011;17386;43.846;25.950;2023-04-22T00:44:17;11.60;;;5.53;;
20629;SDS011;17386;43.846;25.950;2023-04-22T00:46:43;13.30;;;5.75;;
20629;SDS011;17386;43.846;25.950;2023-04-22T00:49:09;13.85;;;6.07;;
20629;SDS011;17386;43.846;25.950;2023-04-22T00:51:35;11.55;;;6.28;;
20629;SDS011;17386;43.846;25.950;2023-04-22T00:54:00;10.45;;;5.60;;
20629;SDS011;17386;43.846;25.950;2023-04-22T00:56:27;13.00;;;5.00;;
20629;SDS011;17386;43.846;25.950;2023-04-22T00:58:55;10.40;;;5.63;;
20629;SDS011;17386;43.846;25.950;2023-04-22T01:01:21;11.00;;;5.70;;
20629;SDS011;17386;43.846;25.950;2023-04-22T01:03:47;15.25;;;5.78;;
20629;SDS011;17386;43.846;25.950;2023-04-22T01:06:15;15.82;;;6.43;;
20629;SDS011;17386;43.846;25.950;2023-04-22T01:08:43;12.18;;;6.05;;
20629;SDS011;17386;43.846;25.950;2023-04-22T01:11:09;10.82;;;5.75;;
20629;SDS011;17386;43.846;25.950;2023-04-22T01:13:34;12.10;;;5.85;;
20629;SDS011;17386;43.846;25.950;2023-04-22T01:16:02;15.15;;;6.45;;
20629;SDS011;17386;43.846;25.950;2023-04-22T01:18:30;16.25;;;6.50;;
20629;SDS011;17386;43.846;25.950;2023-04-22T01:20:56;12.82;;;6.63;;
20629;SDS011;17386;43.846;25.950;2023-04-22T01:23:22;12.80;;;6.13;;
20629;SDS011;17386;43.846;25.950;2023-04-22T01:25:47;12.93;;;6.05;;
20629;SDS011;17386;43.846;25.950;2023-04-22T01:28:14;12.30;;;6.32;;
20629;SDS011;17386;43.846;25.950;2023-04-22T01:30:41;14.52;;;6.80;;
20629;SDS011;17386;43.846;25.950;2023-04-22T01:33:08;14.07;;;6.55;;
20629;SDS011;17386;43.846;25.950;2023-04-22T01:35:34;16.70;;;7.63;;
20629;SDS011;17386;43.846;25.950;2023-04-22T01:38:03;18.15;;;7.43;;
20629;SDS011;17386;43.846;25.950;2023-04-22T01:40:30;19.58;;;6.93;;
20629;SDS011;17386;43.846;25.950;2023-04-22T01:42:59;14.00;;;6.78;;
20629;SDS011;17386;43.846;25.950;2023-04-22T01:45:25;12.80;;;6.45;;
20629;SDS011;17386;43.846;25.950;2023-04-22T01:47:52;17.85;;;6.95;;
20629;SDS011;17386;43.846;25.950;2023-04-22T01:50:17;17.23;;;6.85;;
20629;SDS011;17386;43.846;25.950;2023-04-22T01:52:43;11.30;;;6.65;;
20629;SDS011;17386;43.846;25.950;2023-04-22T01:55:08;14.50;;;6.13;;
20629;SDS011;17386;43.846;25.950;2023-04-22T01:57:34;18.80;;;6.68;;
20629;SDS011;17386;43.846;25.950;2023-04-22T02:00:00;16.15;;;5.82;;
20629;SDS011;17386;43.846;25.950;2023-04-22T02:02:26;14.55;;;6.30;;
20629;SDS011;17386;43.846;25.950;2023-04-22T02:04:51;15.25;;;6.13;;
20629;SDS011;17386;43.846;25.950;2023-04-22T02:07:17;11.73;;;6.18;;
20629;SDS011;17386;43.846;25.950;2023-04-22T02:09:42;9.57;;;5.60;;
20629;SDS011;17386;43.846;25.950;2023-04-22T02:12:08;14.30;;;6.13;;
20629;SDS011;17386;43.846;25.950;2023-04-22T02:14:33;13.65;;;5.43;;
20629;SDS011;17386;43.846;25.950;2023-04-22T02:16:59;12.70;;;5.60;;
20629;SDS011;17386;43.846;25.950;2023-04-22T02:19:26;12.77;;;6.40;;
20629;SDS011;17386;43.846;25.950;2023-04-22T02:21:52;13.65;;;5.63;;
20629;SDS011;17386;43.846;25.950;2023-04-22T02:24:17;19.27;;;6.75;;
20629;SDS011;17386;43.846;25.950;2023-04-22T02:26:43;17.35;;;6.70;;
20629;SDS011;17386;43.846;25.950;2023-04-22T02:29:08;14.57;;;5.95;;
20629;SDS011;17386;43.846;25.950;2023-04-22T02:31:33;12.18;;;5.57;;
20629;SDS011;17386;43.846;25.950;2023-04-22T02:33:59;18.67;;;5.65;;
20629;SDS011;17386;43.846;25.950;2023-04-22T02:36:24;12.80;;;5.82;;
20629;SDS011;17386;43.846;25.950;2023-04-22T02:38:51;11.63;;;5.47;;
20629;SDS011;17386;43.846;25.950;2023-04-22T02:41:17;11.10;;;5.30;;
20629;SDS011;17386;43.846;25.950;2023-04-22T02:43:42;10.07;;;5.05;;
20629;SDS011;17386;43.846;25.950;2023-04-22T02:46:10;11.40;;;5.55;;
20629;SDS011;17386;43.846;25.950;2023-04-22T02:48:37;9.82;;;5.60;;
20629;SDS011;17386;43.846;25.950;2023-04-22T02:51:02;10.52;;;5.22;;
20629;SDS011;17386;43.846;25.950;2023-04-22T02:53:28;13.45;;;5.30;;
20629;SDS011;17386;43.846;25.950;2023-04-22T02:55:53;12.20;;;5.22;;
20629;SDS011;17386;43.846;25.950;2023-04-22T02:58:20;11.40;;;5.22;;
20629;SDS011;17386;43.846;25.950;2023-04-22T03:00:46;11.13;;;5.20;;
20629;SDS011;17386;43.846;25.950;2023-04-22T03:03:12;12.50;;;4.82;;
20629;SDS011;17386;43.846;25.950;2023-04-22T03:05:37;10.85;;;4.32;;
20629;SDS011;17386;43.846;25.950;2023-04-22T03:08:02;11.82;;;4.22;;
20629;SDS011;17386;43.846;25.950;2023-04-22T03:10:28;8.80;;;4.13;;
20629;SDS011;17386;43.846;25.950;2023-04-22T03:12:53;11.13;;;4.85;;
20629;SDS011;17386;43.846;25.950;2023-04-22T03:15:18;8.80;;;4.30;;
20629;SDS011;17386;43.846;25.950;2023-04-22T03:17:44;12.88;;;4.70;;
20629;SDS011;17386;43.846;25.950;2023-04-22T03:20:10;9.90;;;4.63;;
20629;SDS011;17386;43.846;25.950;2023-04-22T03:22:35;9.82;;;4.40;;
20629;SDS011;17386;43.846;25.950;2023-04-22T03:25:01;10.43;;;4.20;;
20629;SDS011;17386;43.846;25.950;2023-04-22T03:27:27;11.32;;;4.55;;
20629;SDS011;17386;43.846;25.950;2023-04-22T03:29:52;10.82;;;6.03;;
20629;SDS011;17386;43.846;25.950;2023-04-22T03:32:17;17.50;;;5.43;;
20629;SDS011;17386;43.846;25.950;2023-04-22T03:34:43;7.60;;;4.72;;
20629;SDS011;17386;43.846;25.950;2023-04-22T03:37:08;8.73;;;5.25;;
20629;SDS011;17386;43.846;25.950;2023-04-22T03:39:33;10.00;;;5.22;;
20629;SDS011;17386;43.846;25.950;2023-04-22T03:41:59;9.95;;;5.20;;
20629;SDS011;17386;43.846;25.950;2023-04-22T03:44:25;12.60;;;5.25;;
20629;SDS011;17386;43.846;25.950;2023-04-22T03:46:51;12.20;;;5.57;;
20629;SDS011;17386;43.846;25.950;2023-04-22T03:49:16;9.95;;;5.30;;
20629;SDS011;17386;43.846;25.950;2023-04-22T03:51:41;11.40;;;6.75;;
20629;SDS011;17386;43.846;25.950;2023-04-22T03:54:07;11.98;;;6.22;;
20629;SDS011;17386;43.846;25.950;2023-04-22T03:56:32;13.73;;;6.53;;
20629;SDS011;17386;43.846;25.950;2023-04-22T03:58:57;16.17;;;7.93;;
20629;SDS011;17386;43.846;25.950;2023-04-22T04:01:23;14.07;;;7.13;;
20629;SDS011;17386;43.846;25.950;2023-04-22T04:03:48;12.15;;;6.43;;
20629;SDS011;17386;43.846;25.950;2023-04-22T04:06:14;13.30;;;7.57;;
20629;SDS011;17386;43.846;25.950;2023-04-22T04:08:39;17.63;;;7.78;;
20629;SDS011;17386;43.846;25.950;2023-04-22T04:11:05;18.70;;;8.45;;
20629;SDS011;17386;43.846;25.950;2023-04-22T04:13:30;18.02;;;8.63;;
20629;SDS011;17386;43.846;25.950;2023-04-22T04:15:57;15.23;;;7.70;;
20629;SDS011;17386;43.846;25.950;2023-04-22T04:18:24;18.83;;;8.07;;
20629;SDS011;17386;43.846;25.950;2023-04-22T04:20:49;15.63;;;7.53;;
20629;SDS011;17386;43.846;25.950;2023-04-22T04:23:14;20.23;;;8.18;;
20629;SDS011;17386;43.846;25.950;2023-04-22T04:25:40;19.00;;;8.43;;
20629;SDS011;17386;43.846;25.950;2023-04-22T04:28:08;17.65;;;8.10;;
20629;SDS011;17386;43.846;25.950;2023-04-22T04:30:35;19.48;;;7.32;;
20629;SDS011;17386;43.846;25.950;2023-04-22T04:33:01;12.82;;;6.82;;
20629;SDS011;17386;43.846;25.950;2023-04-22T04:35:33;13.57;;;7.72;;
20629;SDS011;17386;43.846;25.950;2023-04-22T04:37:59;14.13;;;7.97;;
20629;SDS011;17386;43.846;25.950;2023-04-22T04:40:26;17.83;;;7.30;;
20629;SDS011;17386;43.846;25.950;2023-04-22T04:42:53;15.35;;;7.15;;
20629;SDS011;17386;43.846;25.950;2023-04-22T04:45:19;18.85;;;7.65;;
20629;SDS011;17386;43.846;25.950;2023-04-22T04:47:46;19.30;;;7.70;;
20629;SDS011;17386;43.846;25.950;2023-04-22T04:50:14;17.75;;;8.35;;
20629;SDS011;17386;43.846;25.950;2023-04-22T04:52:40;24.27;;;8.88;;
20629;SDS011;17386;43.846;25.950;2023-04-22T04:55:06;22.80;;;8.35;;
20629;SDS011;17386;43.846;25.950;2023-04-22T04:57:31;17.88;;;8.88;;
20629;SDS011;17386;43.846;25.950;2023-04-22T04:59:57;23.05;;;8.70;;
20629;SDS011;17386;43.846;25.950;2023-04-22T05:02:22;16.98;;;9.38;;
20629;SDS011;17386;43.846;25.950;2023-04-22T05:04:47;18.85;;;9.55;;
20629;SDS011;17386;43.846;25.950;2023-04-22T05:07:13;24.88;;;9.25;;
20629;SDS011;17386;43.846;25.950;2023-04-22T05:09:38;17.60;;;8.13;;
20629;SDS011;17386;43.846;25.950;2023-04-22T05:12:04;18.98;;;7.72;;
20629;SDS011;17386;43.846;25.950;2023-04-22T05:14:29;18.67;;;8.98;;
20629;SDS011;17386;43.846;25.950;2023-04-22T05:16:55;17.90;;;8.70;;
20629;SDS011;17386;43.846;25.950;2023-04-22T05:19:20;23.50;;;8.35;;
20629;SDS011;17386;43.846;25.950;2023-04-22T05:21:46;15.32;;;8.48;;
20629;SDS011;17386;43.846;25.950;2023-04-22T05:24:11;23.65;;;8.82;;
20629;SDS011;17386;43.846;25.950;2023-04-22T05:26:37;19.05;;;8.02;;
20629;SDS011;17386;43.846;25.950;2023-04-22T05:29:02;17.23;;;7.65;;
20629;SDS011;17386;43.846;25.950;2023-04-22T05:31:28;18.10;;;7.63;;
20629;SDS011;17386;43.846;25.950;2023-04-22T05:33:53;24.65;;;9.48;;
20629;SDS011;17386;43.846;25.950;2023-04-22T05:36:18;22.10;;;8.02;;
20629;SDS011;17386;43.846;25.950;2023-04-22T05:38:44;24.52;;;9.18;;
20629;SDS011;17386;43.846;25.950;2023-04-22T05:41:09;14.77;;;7.32;;
20629;SDS011;17386;43.846;25.950;2023-04-22T05:43:35;15.63;;;7.65;;
20629;SDS011;17386;43.846;25.950;2023-04-22T05:46:00;17.42;;;8.25;;
20629;SDS011;17386;43.846;25.950;2023-04-22T05:48:26;21.55;;;8.95;;
20629;SDS011;17386;43.846;25.950;2023-04-22T05:50:51;18.77;;;7.85;;
20629;SDS011;17386;43.846;25.950;2023-04-22T05:53:18;18.38;;;8.40;;
20629;SDS011;17386;43.846;25.950;2023-04-22T05:55:43;16.55;;;8.05;;
20629;SDS011;17386;43.846;25.950;2023-04-22T05:58:09;19.88;;;8.77;;
20629;SDS011;17386;43.846;25.950;2023-04-22T06:00:34;25.95;;;9.20;;
20629;SDS011;17386;43.846;25.950;2023-04-22T06:02:59;16.60;;;8.15;;
20629;SDS011;17386;43.846;25.950;2023-04-22T06:05:25;20.88;;;8.55;;
20629;SDS011;17386;43.846;25.950;2023-04-22T06:07:50;18.38;;;7.70;;
20629;SDS011;17386;43.846;25.950;2023-04-22T06:10:16;13.00;;;6.85;;
20629;SDS011;17386;43.846;25.950;2023-04-22T06:12:41;17.02;;;6.72;;
20629;SDS011;17386;43.846;25.950;2023-04-22T06:15:06;17.35;;;5.88;;
20629;SDS011;17386;43.846;25.950;2023-04-22T06:17:32;14.45;;;5.82;;
20629;SDS011;17386;43.846;25.950;2023-04-22T06:19:58;17.95;;;6.50;;
20629;SDS011;17386;43.846;25.950;2023-04-22T06:22:23;18.10;;;7.88;;
20629;SDS011;17386;43.846;25.950;2023-04-22T06:24:48;17.70;;;6.85;;
20629;SDS011;17386;43.846;25.950;2023-04-22T06:27:14;15.10;;;6.45;;
20629;SDS011;17386;43.846;25.950;2023-04-22T06:29:39;16.50;;;6.72;;
20629;SDS011;17386;43.846;25.950;2023-04-22T06:32:05;16.55;;;6.07;;
20629;SDS011;17386;43.846;25.950;2023-04-22T06:34:30;13.52;;;5.53;;
20629;SDS011;17386;43.846;25.950;2023-04-22T06:36:55;23.08;;;8.48;;
20629;SDS011;17386;43.846;25.950;2023-04-22T06:39:21;24.90;;;6.55;;
20629;SDS011;17386;43.846;25.950;2023-04-22T06:41:46;22.25;;;7.50;;
20629;SDS011;17386;43.846;25.950;2023-04-22T06:44:13;18.90;;;6.55;;
20629;SDS011;17386;43.846;25.950;2023-04-22T06:46:38;16.48;;;6.72;;
20629;SDS011;17386;43.846;25.950;2023-04-22T06:49:04;18.38;;;6.45;;
20629;SDS011;17386;43.846;25.950;2023-04-22T06:51:29;17.73;;;6.25;;
20629;SDS011;17386;43.846;25.950;2023-04-22T06:53:55;20.90;;;7.03;;
20629;SDS011;17386;43.846;25.950;2023-04-22T06:56:22;17.70;;;5.97;;
20629;SDS011;17386;43.846;25.950;2023-04-22T06:58:48;20.05;;;6.20;;
20629;SDS011;17386;43.846;25.950;2023-04-22T07:01:13;11.50;;;5.57;;
20629;SDS011;17386;43.846;25.950;2023-04-22T07:03:39;16.30;;;4.70;;
20629;SDS011;17386;43.846;25.950;2023-04-22T07:06:04;11.38;;;5.55;;
20629;SDS011;17386;43.846;25.950;2023-04-22T07:08:30;11.27;;;4.55;;
20629;SDS011;17386;43.846;25.950;2023-04-22T07:10:56;12.50;;;4.88;;
20629;SDS011;17386;43.846;25.950;2023-04-22T07:13:21;11.70;;;5.47;;
20629;SDS011;17386;43.846;25.950;2023-04-22T07:15:47;12.45;;;4.45;;
20629;SDS011;17386;43.846;25.950;2023-04-22T07:18:13;9.63;;;4.50;;
20629;SDS011;17386;43.846;25.950;2023-04-22T07:20:38;14.82;;;6.82;;
20629;SDS011;17386;43.846;25.950;2023-04-22T07:23:03;14.00;;;5.80;;
20629;SDS011;17386;43.846;25.950;2023-04-22T07:25:29;12.23;;;4.47;;
20629;SDS011;17386;43.846;25.950;2023-04-22T07:27:54;11.85;;;4.50;;
20629;SDS011;17386;43.846;25.950;2023-04-22T07:30:20;8.05;;;3.50;;
20629;SDS011;17386;43.846;25.950;2023-04-22T07:32:45;13.10;;;4.53;;
20629;SDS011;17386;43.846;25.950;2023-04-22T07:35:11;10.13;;;4.10;;
20629;SDS011;17386;43.846;25.950;2023-04-22T07:37:36;13.55;;;4.20;;
20629;SDS011;17386;43.846;25.950;2023-04-22T07:40:02;9.38;;;4.15;;
20629;SDS011;17386;43.846;25.950;2023-04-22T07:42:27;9.88;;;4.03;;
20629;SDS011;17386;43.846;25.950;2023-04-22T07:44:53;14.65;;;4.50;;
20629;SDS011;17386;43.846;25.950;2023-04-22T07:47:18;15.65;;;4.63;;
20629;SDS011;17386;43.846;25.950;2023-04-22T07:49:43;10.65;;;4.28;;
20629;SDS011;17386;43.846;25.950;2023-04-22T07:52:09;9.73;;;4.07;;
20629;SDS011;17386;43.846;25.950;2023-04-22T07:54:35;8.00;;;3.65;;
20629;SDS011;17386;43.846;25.950;2023-04-22T07:57:00;16.15;;;4.25;;
20629;SDS011;17386;43.846;25.950;2023-04-22T07:59:25;16.23;;;4.38;;
20629;SDS011;17386;43.846;25.950;2023-04-22T08:01:51;17.75;;;4.80;;
20629;SDS011;17386;43.846;25.950;2023-04-22T08:04:16;13.65;;;3.78;;
20629;SDS011;17386;43.846;25.950;2023-04-22T08:06:42;12.32;;;4.55;;
20629;SDS011;17386;43.846;25.950;2023-04-22T08:09:07;12.15;;;3.90;;
20629;SDS011;17386;43.846;25.950;2023-04-22T08:11:34;9.43;;;3.35;;
20629;SDS011;17386;43.846;25.950;2023-04-22T08:14:00;9.13;;;3.75;;
20629;SDS011;17386;43.846;25.950;2023-04-22T08:16:25;13.07;;;4.10;;
20629;SDS011;17386;43.846;25.950;2023-04-22T08:18:50;11.88;;;4.03;;
20629;SDS011;17386;43.846;25.950;2023-04-22T08:21:16;9.20;;;3.95;;
20629;SDS011;17386;43.846;25.950;2023-04-22T08:23:41;10.38;;;3.85;;
20629;SDS011;17386;43.846;25.950;2023-04-22T08:26:07;8.15;;;3.85;;
20629;SDS011;17386;43.846;25.950;2023-04-22T08:28:33;10.25;;;4.03;;
20629;SDS011;17386;43.846;25.950;2023-04-22T08:30:59;14.95;;;4.13;;
20629;SDS011;17386;43.846;25.950;2023-04-22T08:33:24;7.13;;;3.60;;
20629;SDS011;17386;43.846;25.950;2023-04-22T08:35:50;10.13;;;3.65;;
20629;SDS011;17386;43.846;25.950;2023-04-22T08:38:15;11.80;;;4.57;;
20629;SDS011;17386;43.846;25.950;2023-04-22T08:40:41;10.88;;;3.38;;
20629;SDS011;17386;43.846;25.950;2023-04-22T08:43:07;8.27;;;3.97;;
20629;SDS011;17386;43.846;25.950;2023-04-22T08:45:32;15.48;;;4.45;;
20629;SDS011;17386;43.846;25.950;2023-04-22T08:47:58;10.02;;;3.88;;
20629;SDS011;17386;43.846;25.950;2023-04-22T08:50:27;15.48;;;4.90;;
20629;SDS011;17386;43.846;25.950;2023-04-22T08:52:54;18.85;;;5.18;;
20629;SDS011;17386;43.846;25.950;2023-04-22T08:55:19;9.52;;;3.72;;
20629;SDS011;17386;43.846;25.950;2023-04-22T08:57:45;22.65;;;4.70;;
20629;SDS011;17386;43.846;25.950;2023-04-22T09:00:11;19.70;;;3.97;;
20629;SDS011;17386;43.846;25.950;2023-04-22T09:02:37;13.70;;;4.22;;
20629;SDS011;17386;43.846;25.950;2023-04-22T09:05:08;9.55;;;3.63;;
20629;SDS011;17386;43.846;25.950;2023-04-22T09:07:35;13.32;;;3.95;;
20629;SDS011;17386;43.846;25.950;2023-04-22T09:10:02;16.02;;;3.85;;
20629;SDS011;17386;43.846;25.950;2023-04-22T09:12:28;11.77;;;4.00;;
20629;SDS011;17386;43.846;25.950;2023-04-22T09:14:53;12.40;;;4.25;;
20629;SDS011;17386;43.846;25.950;2023-04-22T09:17:30;13.63;;;4.07;;
20629;SDS011;17386;43.846;25.950;2023-04-22T09:20:03;8.15;;;3.50;;
20629;SDS011;17386;43.846;25.950;2023-04-22T09:23:04;6.95;;;3.38;;
20629;SDS011;17386;43.846;25.950;2023-04-22T09:25:26;11.00;;;3.75;;
20629;SDS011;17386;43.846;25.950;2023-04-22T09:27:53;11.70;;;3.67;;
20629;SDS011;17386;43.846;25.950;2023-04-22T09:30:30;15.73;;;3.90;;
20629;SDS011;17386;43.846;25.950;2023-04-22T09:35:30;8.32;;;3.35;;
20629;SDS011;17386;43.846;25.950;2023-04-22T09:37:57;11.38;;;3.53;;
20629;SDS011;17386;43.846;25.950;2023-04-22T09:40:24;11.88;;;3.53;;
20629;SDS011;17386;43.846;25.950;2023-04-22T09:42:50;8.98;;;3.55;;
20629;SDS011;17386;43.846;25.950;2023-04-22T09:45:23;16.02;;;6.70;;
20629;SDS011;17386;43.846;25.950;2023-04-22T09:48:00;11.32;;;3.78;;
20629;SDS011;17386;43.846;25.950;2023-04-22T09:50:48;10.52;;;3.22;;
20629;SDS011;17386;43.846;25.950;2023-04-22T09:53:16;10.82;;;3.85;;
20629;SDS011;17386;43.846;25.950;2023-04-22T09:55:44;13.93;;;3.42;;
20629;SDS011;17386;43.846;25.950;2023-04-22T09:58:18;13.88;;;3.63;;
20629;SDS011;17386;43.846;25.950;2023-04-22T10:01:03;10.90;;;4.03;;
20629;SDS011;17386;43.846;25.950;2023-04-22T10:03:28;11.95;;;3.78;;
20629;SDS011;17386;43.846;25.950;2023-04-22T10:05:54;9.95;;;3.20;;
20629;SDS011;17386;43.846;25.950;2023-04-22T10:08:19;10.88;;;3.38;;
20629;SDS011;17386;43.846;25.950;2023-04-22T10:10:45;8.77;;;3.38;;
20629;SDS011;17386;43.846;25.950;2023-04-22T10:13:10;12.45;;;3.30;;
20629;SDS011;17386;43.846;25.950;2023-04-22T10:15:49;7.63;;;2.60;;
20629;SDS011;17386;43.846;25.950;2023-04-22T10:18:26;10.30;;;3.92;;
20629;SDS011;17386;43.846;25.950;2023-04-22T10:20:53;10.60;;;3.08;;
20629;SDS011;17386;43.846;25.950;2023-04-22T10:23:21;9.35;;;3.40;;
20629;SDS011;17386;43.846;25.950;2023-04-22T10:25:49;15.52;;;3.50;;
20629;SDS011;17386;43.846;25.950;2023-04-22T10:28:18;7.93;;;3.35;;
20629;SDS011;17386;43.846;25.950;2023-04-22T10:30:45;11.10;;;3.13;;
20629;SDS011;17386;43.846;25.950;2023-04-22T10:41:31;10.10;;;3.47;;
20629;SDS011;17386;43.846;25.950;2023-04-22T10:43:58;13.75;;;3.90;;
20629;SDS011;17386;43.846;25.950;2023-04-22T10:57:08;9.23;;;2.60;;
20629;SDS011;17386;43.846;25.950;2023-04-22T10:59:47;11.18;;;3.65;;
20629;SDS011;17386;43.846;25.950;2023-04-22T11:02:14;10.98;;;3.70;;
20629;SDS011;17386;43.846;25.950;2023-04-22T11:04:40;15.43;;;4.13;;
20629;SDS011;17386;43.846;25.950;2023-04-22T11:10:30;9.75;;;3.83;;
20629;SDS011;17386;43.846;25.950;2023-04-22T11:17:49;11.48;;;4.30;;
20629;SDS011;17386;43.846;25.950;2023-04-22T11:20:15;14.30;;;3.72;;
20629;SDS011;17386;43.846;25.950;2023-04-22T11:22:42;9.43;;;3.20;;
20629;SDS011;17386;43.846;25.950;2023-04-22T11:25:10;9.00;;;3.67;;
20629;SDS011;17386;43.846;25.950;2023-04-22T11:27:36;9.00;;;3.08;;
20629;SDS011;17386;43.846;25.950;2023-04-22T11:32:37;9.23;;;3.08;;
20629;SDS011;17386;43.846;25.950;2023-04-22T11:35:06;10.82;;;3.83;;
20629;SDS011;17386;43.846;25.950;2023-04-22T11:37:40;5.32;;;2.85;;
20629;SDS011;17386;43.846;25.950;2023-04-22T11:40:15;8.60;;;3.58;;
20629;SDS011;17386;43.846;25.950;2023-04-22T11:42:42;17.90;;;6.15;;
20629;SDS011;17386;43.846;25.950;2023-04-22T11:45:08;9.95;;;3.35;;
20629;SDS011;17386;43.846;25.950;2023-04-22T11:47:34;8.27;;;2.80;;
20629;SDS011;17386;43.846;25.950;2023-04-22T11:50:02;10.70;;;3.58;;
20629;SDS011;17386;43.846;25.950;2023-04-22T11:58:06;13.02;;;3.50;;
20629;SDS011;17386;43.846;25.950;2023-04-22T12:00:34;13.15;;;3.42;;
20629;SDS011;17386;43.846;25.950;2023-04-22T12:03:10;7.28;;;2.75;;
20629;SDS011;17386;43.846;25.950;2023-04-22T12:05:38;10.68;;;2.70;;
20629;SDS011;17386;43.846;25.950;2023-04-22T12:08:06;10.45;;;3.30;;
20629;SDS011;17386;43.846;25.950;2023-04-22T12:10:34;9.00;;;3.60;;
20629;SDS011;17386;43.846;25.950;2023-04-22T12:13:03;10.50;;;3.22;;
20629;SDS011;17386;43.846;25.950;2023-04-22T12:15:40;9.85;;;2.88;;
20629;SDS011;17386;43.846;25.950;2023-04-22T12:18:07;9.45;;;3.25;;
20629;SDS011;17386;43.846;25.950;2023-04-22T12:20:33;10.65;;;3.13;;
20629;SDS011;17386;43.846;25.950;2023-04-22T12:23:00;10.20;;;3.28;;
20629;SDS011;17386;43.846;25.950;2023-04-22T12:25:26;6.68;;;3.20;;
20629;SDS011;17386;43.846;25.950;2023-04-22T12:27:51;7.13;;;3.15;;
20629;SDS011;17386;43.846;25.950;2023-04-22T12:30:17;6.68;;;3.00;;
20629;SDS011;17386;43.846;25.950;2023-04-22T12:32:42;8.93;;;3.17;;
20629;SDS011;17386;43.846;25.950;2023-04-22T12:35:08;9.13;;;3.47;;
20629;SDS011;17386;43.846;25.950;2023-04-22T12:37:33;14.45;;;3.65;;
20629;SDS011;17386;43.846;25.950;2023-04-22T12:39:59;7.95;;;3.22;;
20629;SDS011;17386;43.846;25.950;2023-04-22T12:42:25;10.57;;;3.30;;
20629;SDS011;17386;43.846;25.950;2023-04-22T12:44:50;14.90;;;3.40;;
20629;SDS011;17386;43.846;25.950;2023-04-22T12:47:15;11.35;;;3.65;;
20629;SDS011;17386;43.846;25.950;2023-04-22T12:49:42;16.13;;;5.55;;
20629;SDS011;17386;43.846;25.950;2023-04-22T12:52:08;11.27;;;3.30;;
20629;SDS011;17386;43.846;25.950;2023-04-22T12:54:34;10.52;;;3.00;;
20629;SDS011;17386;43.846;25.950;2023-04-22T12:56:59;9.40;;;3.47;;
20629;SDS011;17386;43.846;25.950;2023-04-22T12:59:26;9.60;;;2.72;;
20629;SDS011;17386;43.846;25.950;2023-04-22T13:01:51;17.77;;;7.75;;
20629;SDS011;17386;43.846;25.950;2023-04-22T13:04:19;9.70;;;3.25;;
20629;SDS011;17386;43.846;25.950;2023-04-22T13:06:45;13.85;;;3.03;;
20629;SDS011;17386;43.846;25.950;2023-04-22T13:09:10;10.52;;;3.65;;
20629;SDS011;17386;43.846;25.950;2023-04-22T13:11:37;9.43;;;4.00;;
20629;SDS011;17386;43.846;25.950;2023-04-22T13:14:02;10.73;;;3.72;;
20629;SDS011;17386;43.846;25.950;2023-04-22T13:16:28;15.05;;;4.40;;
20629;SDS011;17386;43.846;25.950;2023-04-22T13:18:53;6.82;;;2.78;;
20629;SDS011;17386;43.846;25.950;2023-04-22T13:21:19;7.63;;;3.05;;
20629;SDS011;17386;43.846;25.950;2023-04-22T13:23:44;10.25;;;2.65;;
20629;SDS011;17386;43.846;25.950;2023-04-22T13:26:10;10.18;;;3.08;;
20629;SDS011;17386;43.846;25.950;2023-04-22T13:28:35;9.25;;;3.08;;
20629;SDS011;17386;43.846;25.950;2023-04-22T13:31:01;8.48;;;2.55;;
20629;SDS011;17386;43.846;25.950;2023-04-22T13:33:27;9.88;;;2.70;;
20629;SDS011;17386;43.846;25.950;2023-04-22T13:35:52;7.22;;;2.85;;
20629;SDS011;17386;43.846;25.950;2023-04-22T13:38:18;10.43;;;3.28;;
20629;SDS011;17386;43.846;25.950;2023-04-22T13:40:43;7.65;;;2.92;;
20629;SDS011;17386;43.846;25.950;2023-04-22T13:43:09;8.50;;;2.53;;
20629;SDS011;17386;43.846;25.950;2023-04-22T13:45:34;8.95;;;2.65;;
20629;SDS011;17386;43.846;25.950;2023-04-22T13:48:00;8.88;;;3.25;;
20629;SDS011;17386;43.846;25.950;2023-04-22T13:50:25;10.30;;;3.20;;
20629;SDS011;17386;43.846;25.950;2023-04-22T13:52:51;12.35;;;4.85;;
20629;SDS011;17386;43.846;25.950;2023-04-22T13:55:17;8.73;;;3.58;;
20629;SDS011;17386;43.846;25.950;2023-04-22T13:57:42;6.30;;;2.30;;
20629;SDS011;17386;43.846;25.950;2023-04-22T14:00:09;6.88;;;2.83;;
20629;SDS011;17386;43.846;25.950;2023-04-22T14:02:35;7.95;;;2.78;;
20629;SDS011;17386;43.846;25.950;2023-04-22T14:05:01;11.73;;;3.10;;
20629;SDS011;17386;43.846;25.950;2023-04-22T14:07:26;12.63;;;3.53;;
20629;SDS011;17386;43.846;25.950;2023-04-22T14:09:51;5.43;;;2.63;;
20629;SDS011;17386;43.846;25.950;2023-04-22T14:12:17;14.70;;;3.80;;
20629;SDS011;17386;43.846;25.950;2023-04-22T14:14:42;11.10;;;3.42;;
20629;SDS011;17386;43.846;25.950;2023-04-22T14:17:08;7.68;;;2.90;;
20629;SDS011;17386;43.846;25.950;2023-04-22T14:19:33;10.48;;;2.67;;
20629;SDS011;17386;43.846;25.950;2023-04-22T14:22:01;9.02;;;2.70;;
20629;SDS011;17386;43.846;25.950;2023-04-22T14:24:26;9.63;;;2.55;;
20629;SDS011;17386;43.846;25.950;2023-04-22T14:26:52;5.03;;;2.40;;
20629;SDS011;17386;43.846;25.950;2023-04-22T14:29:18;8.40;;;2.63;;
20629;SDS011;17386;43.846;25.950;2023-04-22T14:31:44;17.17;;;3.17;;
20629;SDS011;17386;43.846;25.950;2023-04-22T14:34:09;8.15;;;2.72;;
20629;SDS011;17386;43.846;25.950;2023-04-22T14:36:35;6.00;;;2.50;;
20629;SDS011;17386;43.846;25.950;2023-04-22T14:39:00;6.93;;;2.63;;
20629;SDS011;17386;43.846;25.950;2023-04-22T14:41:26;8.02;;;2.95;;
20629;SDS011;17386;43.846;25.950;2023-04-22T14:43:51;8.10;;;2.45;;
20629;SDS011;17386;43.846;25.950;2023-04-22T14:46:16;7.38;;;2.50;;
20629;SDS011;17386;43.846;25.950;2023-04-22T14:48:42;8.90;;;2.45;;
20629;SDS011;17386;43.846;25.950;2023-04-22T14:51:07;6.05;;;2.40;;
20629;SDS011;17386;43.846;25.950;2023-04-22T14:53:33;7.78;;;2.53;;
20629;SDS011;17386;43.846;25.950;2023-04-22T14:55:58;5.28;;;2.40;;
20629;SDS011;17386;43.846;25.950;2023-04-22T14:58:24;10.15;;;2.65;;